KTWF/TWF METAR and TAF weather

Enter ICAO airport designator
Station Type Date Time Source
KTWF METAR 2020/09/22 00:53 UTC NOAA

KTWF 220053Z 10005KT 8SM CLR 23/08 A2998 RMK AO2 SLP117 T02330083


Station Type Date Time Source
KTWF Decoded METAR 2020/09/22 00:53 UTC NOAA

JOSLIN FLD-MAGIC VALLEY REGL, ID, United States (KTWF) 42-29N 114-29W 1266M
Sep 21, 2020 - 08:53 PM EDT / 2020.09.22 0053 UTC
Wind: from the E (100 degrees) at 6 MPH (5 KT):0
Visibility: 8 mile(s):0
Sky conditions: clear
Temperature: 73.9 F (23.3 C)
Dew Point: 46.9 F (8.3 C)
Relative Humidity: 38%
Pressure (altimeter): 29.98 in. Hg (1015 hPa)
ob: KTWF 220053Z 10005KT 8SM CLR 23/08 A2998 RMK AO2 SLP117 T02330083
cycle: 1

Station Type Date Time Source
KTWF TAF 2020/09/21 18:22 UTC NOAA

TAF KTWF 211720Z 2118/2218 05008KT P6SM SKC
FM220300 18009KT P6SM SCT150

Example: see airport list